sensor_id;sensor_type;location;lat;lon;timestamp;P1;durP1;ratioP1;P2;durP2;ratioP2
11933;SDS011;6026;48.784;9.198;2022-11-21T00:00:25;0.20;;;0.20;;
11933;SDS011;6026;48.784;9.198;2022-11-21T00:02:51;0.10;;;0.10;;
11933;SDS011;6026;48.784;9.198;2022-11-21T00:05:16;0.10;;;0.10;;
11933;SDS011;6026;48.784;9.198;2022-11-21T00:07:42;0.10;;;0.10;;
11933;SDS011;6026;48.784;9.198;2022-11-21T00:10:10;0.20;;;0.20;;
11933;SDS011;6026;48.784;9.198;2022-11-21T00:12:38;0.20;;;0.20;;
11933;SDS011;6026;48.784;9.198;2022-11-21T00:15:04;0.20;;;0.20;;
11933;SDS011;6026;48.784;9.198;2022-11-21T00:17:30;0.20;;;0.20;;
11933;SDS011;6026;48.784;9.198;2022-11-21T00:19:55;0.17;;;0.17;;
11933;SDS011;6026;48.784;9.198;2022-11-21T00:22:21;0.20;;;0.20;;
11933;SDS011;6026;48.784;9.198;2022-11-21T00:24:47;0.20;;;0.20;;
11933;SDS011;6026;48.784;9.198;2022-11-21T00:27:12;0.10;;;0.10;;
11933;SDS011;6026;48.784;9.198;2022-11-21T00:29:38;0.20;;;0.20;;
11933;SDS011;6026;48.784;9.198;2022-11-21T00:32:03;0.13;;;0.13;;
11933;SDS011;6026;48.784;9.198;2022-11-21T00:34:29;0.73;;;0.73;;
11933;SDS011;6026;48.784;9.198;2022-11-21T00:36:54;0.20;;;0.20;;
11933;SDS011;6026;48.784;9.198;2022-11-21T00:39:20;0.20;;;0.20;;
11933;SDS011;6026;48.784;9.198;2022-11-21T00:41:46;0.23;;;0.23;;
11933;SDS011;6026;48.784;9.198;2022-11-21T00:44:11;0.10;;;0.10;;
11933;SDS011;6026;48.784;9.198;2022-11-21T00:46:37;0.20;;;0.20;;
11933;SDS011;6026;48.784;9.198;2022-11-21T00:49:02;0.20;;;0.20;;
11933;SDS011;6026;48.784;9.198;2022-11-21T00:51:28;0.20;;;0.20;;
11933;SDS011;6026;48.784;9.198;2022-11-21T00:53:53;0.10;;;0.10;;
11933;SDS011;6026;48.784;9.198;2022-11-21T00:56:19;0.20;;;0.20;;
11933;SDS011;6026;48.784;9.198;2022-11-21T00:58:44;0.17;;;0.17;;
11933;SDS011;6026;48.784;9.198;2022-11-21T01:01:14;0.10;;;0.10;;
11933;SDS011;6026;48.784;9.198;2022-11-21T01:03:40;0.20;;;0.20;;
11933;SDS011;6026;48.784;9.198;2022-11-21T01:06:10;0.20;;;0.20;;
11933;SDS011;6026;48.784;9.198;2022-11-21T01:08:38;0.10;;;0.10;;
11933;SDS011;6026;48.784;9.198;2022-11-21T01:11:09;0.20;;;0.20;;
11933;SDS011;6026;48.784;9.198;2022-11-21T01:13:37;0.20;;;0.20;;
11933;SDS011;6026;48.784;9.198;2022-11-21T01:16:04;0.20;;;0.20;;
11933;SDS011;6026;48.784;9.198;2022-11-21T01:18:31;0.10;;;0.10;;
11933;SDS011;6026;48.784;9.198;2022-11-21T01:21:00;0.10;;;0.10;;
11933;SDS011;6026;48.784;9.198;2022-11-21T01:23:27;0.20;;;0.20;;
11933;SDS011;6026;48.784;9.198;2022-11-21T01:25:53;0.10;;;0.10;;
11933;SDS011;6026;48.784;9.198;2022-11-21T01:28:19;0.20;;;0.20;;
11933;SDS011;6026;48.784;9.198;2022-11-21T01:30:44;0.20;;;0.20;;
11933;SDS011;6026;48.784;9.198;2022-11-21T01:33:10;0.10;;;0.10;;
11933;SDS011;6026;48.784;9.198;2022-11-21T01:35:35;0.10;;;0.10;;
11933;SDS011;6026;48.784;9.198;2022-11-21T01:38:01;0.17;;;0.17;;
11933;SDS011;6026;48.784;9.198;2022-11-21T01:40:26;0.10;;;0.10;;
11933;SDS011;6026;48.784;9.198;2022-11-21T01:42:53;0.10;;;0.10;;
11933;SDS011;6026;48.784;9.198;2022-11-21T01:48:15;0.10;;;0.10;;
11933;SDS011;6026;48.784;9.198;2022-11-21T01:50:41;0.50;;;0.50;;
11933;SDS011;6026;48.784;9.198;2022-11-21T01:53:06;0.10;;;0.10;;
11933;SDS011;6026;48.784;9.198;2022-11-21T01:55:32;0.10;;;0.10;;
11933;SDS011;6026;48.784;9.198;2022-11-21T01:57:59;0.10;;;0.10;;
11933;SDS011;6026;48.784;9.198;2022-11-21T02:00:26;0.10;;;0.10;;
11933;SDS011;6026;48.784;9.198;2022-11-21T02:02:56;0.10;;;0.10;;
11933;SDS011;6026;48.784;9.198;2022-11-21T02:05:26;0.00;;;0.00;;
11933;SDS011;6026;48.784;9.198;2022-11-21T02:07:56;0.20;;;0.20;;
11933;SDS011;6026;48.784;9.198;2022-11-21T02:10:26;0.10;;;0.10;;
11933;SDS011;6026;48.784;9.198;2022-11-21T02:12:53;0.10;;;0.10;;
11933;SDS011;6026;48.784;9.198;2022-11-21T02:15:20;0.10;;;0.10;;
11933;SDS011;6026;48.784;9.198;2022-11-21T02:17:48;0.10;;;0.10;;
11933;SDS011;6026;48.784;9.198;2022-11-21T02:20:15;0.10;;;0.10;;
11933;SDS011;6026;48.784;9.198;2022-11-21T02:25:42;0.10;;;0.10;;
11933;SDS011;6026;48.784;9.198;2022-11-21T02:28:10;0.10;;;0.10;;
11933;SDS011;6026;48.784;9.198;2022-11-21T02:30:39;0.10;;;0.10;;
11933;SDS011;6026;48.784;9.198;2022-11-21T02:33:05;0.20;;;0.20;;
11933;SDS011;6026;48.784;9.198;2022-11-21T02:35:32;0.10;;;0.10;;
11933;SDS011;6026;48.784;9.198;2022-11-21T02:38:32;0.10;;;0.10;;
11933;SDS011;6026;48.784;9.198;2022-11-21T02:41:19;0.10;;;0.10;;
11933;SDS011;6026;48.784;9.198;2022-11-21T02:44:01;0.20;;;0.20;;
11933;SDS011;6026;48.784;9.198;2022-11-21T02:46:33;0.10;;;0.10;;
11933;SDS011;6026;48.784;9.198;2022-11-21T02:48:59;0.10;;;0.10;;
11933;SDS011;6026;48.784;9.198;2022-11-21T02:51:30;0.10;;;0.10;;
11933;SDS011;6026;48.784;9.198;2022-11-21T02:53:55;0.07;;;0.07;;
11933;SDS011;6026;48.784;9.198;2022-11-21T02:56:21;0.10;;;0.10;;
11933;SDS011;6026;48.784;9.198;2022-11-21T02:58:47;0.10;;;0.10;;
11933;SDS011;6026;48.784;9.198;2022-11-21T03:01:12;0.00;;;0.00;;
11933;SDS011;6026;48.784;9.198;2022-11-21T03:03:38;0.10;;;0.10;;
11933;SDS011;6026;48.784;9.198;2022-11-21T03:06:03;0.10;;;0.10;;
11933;SDS011;6026;48.784;9.198;2022-11-21T03:08:29;0.00;;;0.00;;
11933;SDS011;6026;48.784;9.198;2022-11-21T03:10:54;0.10;;;0.10;;
11933;SDS011;6026;48.784;9.198;2022-11-21T03:13:20;0.10;;;0.10;;
11933;SDS011;6026;48.784;9.198;2022-11-21T03:15:46;0.10;;;0.10;;
11933;SDS011;6026;48.784;9.198;2022-11-21T03:18:11;0.10;;;0.10;;
11933;SDS011;6026;48.784;9.198;2022-11-21T03:20:37;0.10;;;0.10;;
11933;SDS011;6026;48.784;9.198;2022-11-21T03:23:02;0.20;;;0.20;;
11933;SDS011;6026;48.784;9.198;2022-11-21T03:25:28;0.10;;;0.10;;
11933;SDS011;6026;48.784;9.198;2022-11-21T03:27:54;0.10;;;0.10;;
11933;SDS011;6026;48.784;9.198;2022-11-21T03:30:20;0.23;;;0.23;;
11933;SDS011;6026;48.784;9.198;2022-11-21T03:32:47;0.20;;;0.20;;
11933;SDS011;6026;48.784;9.198;2022-11-21T03:35:13;0.10;;;0.10;;
11933;SDS011;6026;48.784;9.198;2022-11-21T03:37:39;0.10;;;0.10;;
11933;SDS011;6026;48.784;9.198;2022-11-21T03:40:05;0.00;;;0.00;;
11933;SDS011;6026;48.784;9.198;2022-11-21T03:42:31;0.10;;;0.10;;
11933;SDS011;6026;48.784;9.198;2022-11-21T03:44:56;0.10;;;0.10;;
11933;SDS011;6026;48.784;9.198;2022-11-21T03:47:22;0.10;;;0.10;;
11933;SDS011;6026;48.784;9.198;2022-11-21T03:49:49;0.10;;;0.10;;
11933;SDS011;6026;48.784;9.198;2022-11-21T03:52:15;0.10;;;0.10;;
11933;SDS011;6026;48.784;9.198;2022-11-21T03:54:40;0.20;;;0.20;;
11933;SDS011;6026;48.784;9.198;2022-11-21T03:57:06;0.10;;;0.10;;
11933;SDS011;6026;48.784;9.198;2022-11-21T03:59:31;0.10;;;0.10;;
11933;SDS011;6026;48.784;9.198;2022-11-21T04:01:57;0.07;;;0.07;;
11933;SDS011;6026;48.784;9.198;2022-11-21T04:04:23;0.10;;;0.10;;
11933;SDS011;6026;48.784;9.198;2022-11-21T04:06:48;0.20;;;0.20;;
11933;SDS011;6026;48.784;9.198;2022-11-21T04:09:14;0.00;;;0.00;;
11933;SDS011;6026;48.784;9.198;2022-11-21T04:11:39;0.10;;;0.10;;
11933;SDS011;6026;48.784;9.198;2022-11-21T04:14:05;0.10;;;0.10;;
11933;SDS011;6026;48.784;9.198;2022-11-21T04:16:30;0.10;;;0.10;;
11933;SDS011;6026;48.784;9.198;2022-11-21T04:18:56;0.10;;;0.10;;
11933;SDS011;6026;48.784;9.198;2022-11-21T04:21:21;0.10;;;0.10;;
11933;SDS011;6026;48.784;9.198;2022-11-21T04:23:47;0.20;;;0.20;;
11933;SDS011;6026;48.784;9.198;2022-11-21T04:26:13;0.20;;;0.20;;
11933;SDS011;6026;48.784;9.198;2022-11-21T04:28:38;0.10;;;0.10;;
11933;SDS011;6026;48.784;9.198;2022-11-21T04:31:04;0.20;;;0.20;;
11933;SDS011;6026;48.784;9.198;2022-11-21T04:33:32;0.30;;;0.30;;
11933;SDS011;6026;48.784;9.198;2022-11-21T04:35:57;0.10;;;0.10;;
11933;SDS011;6026;48.784;9.198;2022-11-21T04:38:23;0.10;;;0.10;;
11933;SDS011;6026;48.784;9.198;2022-11-21T04:40:49;0.10;;;0.10;;
11933;SDS011;6026;48.784;9.198;2022-11-21T04:43:14;0.10;;;0.10;;
11933;SDS011;6026;48.784;9.198;2022-11-21T04:45:40;0.10;;;0.10;;
11933;SDS011;6026;48.784;9.198;2022-11-21T04:48:06;0.10;;;0.10;;
11933;SDS011;6026;48.784;9.198;2022-11-21T04:50:31;0.10;;;0.10;;
11933;SDS011;6026;48.784;9.198;2022-11-21T04:52:57;0.13;;;0.13;;
11933;SDS011;6026;48.784;9.198;2022-11-21T04:55:24;0.20;;;0.20;;
11933;SDS011;6026;48.784;9.198;2022-11-21T04:57:52;0.03;;;0.03;;
11933;SDS011;6026;48.784;9.198;2022-11-21T05:00:18;0.10;;;0.10;;
11933;SDS011;6026;48.784;9.198;2022-11-21T05:02:44;0.20;;;0.20;;
11933;SDS011;6026;48.784;9.198;2022-11-21T05:05:10;0.10;;;0.10;;
11933;SDS011;6026;48.784;9.198;2022-11-21T05:07:36;0.10;;;0.10;;
11933;SDS011;6026;48.784;9.198;2022-11-21T05:10:02;0.10;;;0.10;;
11933;SDS011;6026;48.784;9.198;2022-11-21T05:12:29;0.10;;;0.10;;
11933;SDS011;6026;48.784;9.198;2022-11-21T05:15:13;0.00;;;0.00;;
11933;SDS011;6026;48.784;9.198;2022-11-21T05:17:39;0.13;;;0.13;;
11933;SDS011;6026;48.784;9.198;2022-11-21T05:20:04;0.20;;;0.20;;
11933;SDS011;6026;48.784;9.198;2022-11-21T05:22:30;0.10;;;0.10;;
11933;SDS011;6026;48.784;9.198;2022-11-21T05:24:56;0.10;;;0.10;;
11933;SDS011;6026;48.784;9.198;2022-11-21T05:27:22;0.10;;;0.10;;
11933;SDS011;6026;48.784;9.198;2022-11-21T05:29:47;0.20;;;0.20;;
11933;SDS011;6026;48.784;9.198;2022-11-21T05:32:13;0.17;;;0.17;;
11933;SDS011;6026;48.784;9.198;2022-11-21T05:34:38;0.17;;;0.17;;
11933;SDS011;6026;48.784;9.198;2022-11-21T05:37:04;0.10;;;0.10;;
11933;SDS011;6026;48.784;9.198;2022-11-21T05:39:30;0.20;;;0.20;;
11933;SDS011;6026;48.784;9.198;2022-11-21T05:41:55;0.20;;;0.20;;
11933;SDS011;6026;48.784;9.198;2022-11-21T05:44:21;0.07;;;0.07;;
11933;SDS011;6026;48.784;9.198;2022-11-21T05:46:46;0.17;;;0.17;;
11933;SDS011;6026;48.784;9.198;2022-11-21T05:49:12;0.20;;;0.20;;
11933;SDS011;6026;48.784;9.198;2022-11-21T05:51:38;0.10;;;0.10;;
11933;SDS011;6026;48.784;9.198;2022-11-21T05:54:03;0.20;;;0.20;;
11933;SDS011;6026;48.784;9.198;2022-11-21T05:56:29;0.10;;;0.10;;
11933;SDS011;6026;48.784;9.198;2022-11-21T05:58:56;0.30;;;0.30;;
11933;SDS011;6026;48.784;9.198;2022-11-21T06:01:22;0.10;;;0.10;;
11933;SDS011;6026;48.784;9.198;2022-11-21T06:04:08;0.10;;;0.10;;
11933;SDS011;6026;48.784;9.198;2022-11-21T06:06:34;0.10;;;0.10;;
11933;SDS011;6026;48.784;9.198;2022-11-21T06:09:00;0.10;;;0.10;;
11933;SDS011;6026;48.784;9.198;2022-11-21T06:11:26;0.20;;;0.20;;
11933;SDS011;6026;48.784;9.198;2022-11-21T06:13:51;0.10;;;0.10;;
11933;SDS011;6026;48.784;9.198;2022-11-21T06:16:18;0.10;;;0.10;;
11933;SDS011;6026;48.784;9.198;2022-11-21T06:18:45;0.10;;;0.10;;
11933;SDS011;6026;48.784;9.198;2022-11-21T06:21:17;0.20;;;0.20;;
11933;SDS011;6026;48.784;9.198;2022-11-21T06:23:44;0.10;;;0.10;;
11933;SDS011;6026;48.784;9.198;2022-11-21T06:26:11;0.00;;;0.00;;
11933;SDS011;6026;48.784;9.198;2022-11-21T06:28:39;0.20;;;0.20;;
11933;SDS011;6026;48.784;9.198;2022-11-21T06:31:06;0.30;;;0.30;;
11933;SDS011;6026;48.784;9.198;2022-11-21T06:33:37;0.10;;;0.10;;
11933;SDS011;6026;48.784;9.198;2022-11-21T06:36:04;0.10;;;0.10;;
11933;SDS011;6026;48.784;9.198;2022-11-21T06:38:40;0.10;;;0.10;;
11933;SDS011;6026;48.784;9.198;2022-11-21T06:41:08;0.10;;;0.10;;
11933;SDS011;6026;48.784;9.198;2022-11-21T06:43:38;0.20;;;0.20;;
11933;SDS011;6026;48.784;9.198;2022-11-21T06:46:05;0.20;;;0.20;;
11933;SDS011;6026;48.784;9.198;2022-11-21T06:48:31;0.20;;;0.20;;
11933;SDS011;6026;48.784;9.198;2022-11-21T06:51:07;0.20;;;0.20;;
11933;SDS011;6026;48.784;9.198;2022-11-21T06:53:33;0.20;;;0.20;;
11933;SDS011;6026;48.784;9.198;2022-11-21T06:55:59;0.10;;;0.10;;
11933;SDS011;6026;48.784;9.198;2022-11-21T06:58:25;0.10;;;0.10;;
11933;SDS011;6026;48.784;9.198;2022-11-21T07:00:52;0.20;;;0.20;;
11933;SDS011;6026;48.784;9.198;2022-11-21T07:03:17;0.10;;;0.10;;
11933;SDS011;6026;48.784;9.198;2022-11-21T07:05:43;0.20;;;0.20;;
11933;SDS011;6026;48.784;9.198;2022-11-21T07:08:09;0.20;;;0.20;;
11933;SDS011;6026;48.784;9.198;2022-11-21T07:10:34;1.30;;;1.20;;
11933;SDS011;6026;48.784;9.198;2022-11-21T07:13:00;0.00;;;0.00;;
11933;SDS011;6026;48.784;9.198;2022-11-21T07:15:44;0.10;;;0.10;;
11933;SDS011;6026;48.784;9.198;2022-11-21T07:18:11;0.10;;;0.10;;
11933;SDS011;6026;48.784;9.198;2022-11-21T07:20:37;0.17;;;0.17;;
11933;SDS011;6026;48.784;9.198;2022-11-21T07:23:03;0.10;;;0.10;;
11933;SDS011;6026;48.784;9.198;2022-11-21T07:25:29;0.20;;;0.20;;
11933;SDS011;6026;48.784;9.198;2022-11-21T07:27:58;0.20;;;0.20;;
11933;SDS011;6026;48.784;9.198;2022-11-21T07:30:24;0.20;;;0.20;;
11933;SDS011;6026;48.784;9.198;2022-11-21T07:32:56;0.10;;;0.10;;
11933;SDS011;6026;48.784;9.198;2022-11-21T07:35:23;0.20;;;0.20;;
11933;SDS011;6026;48.784;9.198;2022-11-21T07:37:49;0.20;;;0.20;;
11933;SDS011;6026;48.784;9.198;2022-11-21T07:40:15;0.20;;;0.20;;
11933;SDS011;6026;48.784;9.198;2022-11-21T07:42:41;0.80;;;0.80;;
11933;SDS011;6026;48.784;9.198;2022-11-21T07:45:06;0.20;;;0.20;;
11933;SDS011;6026;48.784;9.198;2022-11-21T07:47:33;0.20;;;0.20;;
11933;SDS011;6026;48.784;9.198;2022-11-21T07:49:58;0.10;;;0.10;;
11933;SDS011;6026;48.784;9.198;2022-11-21T07:52:24;0.20;;;0.20;;
11933;SDS011;6026;48.784;9.198;2022-11-21T07:54:50;0.20;;;0.20;;
11933;SDS011;6026;48.784;9.198;2022-11-21T07:57:15;0.30;;;0.30;;
11933;SDS011;6026;48.784;9.198;2022-11-21T07:59:41;0.10;;;0.10;;
11933;SDS011;6026;48.784;9.198;2022-11-21T08:02:13;0.20;;;0.20;;
11933;SDS011;6026;48.784;9.198;2022-11-21T08:04:43;0.10;;;0.10;;
11933;SDS011;6026;48.784;9.198;2022-11-21T08:07:09;0.10;;;0.10;;
11933;SDS011;6026;48.784;9.198;2022-11-21T08:09:35;0.10;;;0.10;;
11933;SDS011;6026;48.784;9.198;2022-11-21T08:12:00;0.20;;;0.20;;
11933;SDS011;6026;48.784;9.198;2022-11-21T08:14:26;0.30;;;0.30;;
11933;SDS011;6026;48.784;9.198;2022-11-21T08:16:52;0.20;;;0.20;;
11933;SDS011;6026;48.784;9.198;2022-11-21T08:19:18;0.20;;;0.20;;
11933;SDS011;6026;48.784;9.198;2022-11-21T08:21:44;0.30;;;0.30;;
11933;SDS011;6026;48.784;9.198;2022-11-21T08:24:09;0.20;;;0.20;;
11933;SDS011;6026;48.784;9.198;2022-11-21T08:26:38;0.20;;;0.20;;
11933;SDS011;6026;48.784;9.198;2022-11-21T08:29:04;0.20;;;0.20;;
11933;SDS011;6026;48.784;9.198;2022-11-21T08:31:30;0.20;;;0.20;;
11933;SDS011;6026;48.784;9.198;2022-11-21T08:33:56;0.30;;;0.30;;
11933;SDS011;6026;48.784;9.198;2022-11-21T08:36:23;0.20;;;0.20;;
11933;SDS011;6026;48.784;9.198;2022-11-21T08:38:49;0.27;;;0.27;;
11933;SDS011;6026;48.784;9.198;2022-11-21T08:41:14;0.40;;;0.40;;
11933;SDS011;6026;48.784;9.198;2022-11-21T08:43:58;0.40;;;0.40;;
11933;SDS011;6026;48.784;9.198;2022-11-21T08:46:24;0.40;;;0.40;;
11933;SDS011;6026;48.784;9.198;2022-11-21T08:48:53;0.30;;;0.30;;
11933;SDS011;6026;48.784;9.198;2022-11-21T08:51:19;0.30;;;0.30;;
11933;SDS011;6026;48.784;9.198;2022-11-21T08:53:45;0.27;;;0.27;;
11933;SDS011;6026;48.784;9.198;2022-11-21T08:56:11;0.70;;;0.70;;
11933;SDS011;6026;48.784;9.198;2022-11-21T08:58:36;0.40;;;0.40;;
11933;SDS011;6026;48.784;9.198;2022-11-21T09:01:02;0.40;;;0.40;;
11933;SDS011;6026;48.784;9.198;2022-11-21T09:03:27;0.50;;;0.50;;
11933;SDS011;6026;48.784;9.198;2022-11-21T09:05:55;0.50;;;0.50;;
11933;SDS011;6026;48.784;9.198;2022-11-21T09:08:21;0.40;;;0.40;;
11933;SDS011;6026;48.784;9.198;2022-11-21T09:10:46;0.80;;;0.80;;
11933;SDS011;6026;48.784;9.198;2022-11-21T09:13:12;0.70;;;0.70;;
11933;SDS011;6026;48.784;9.198;2022-11-21T09:15:37;0.50;;;0.50;;
11933;SDS011;6026;48.784;9.198;2022-11-21T09:18:21;0.60;;;0.60;;
11933;SDS011;6026;48.784;9.198;2022-11-21T09:20:47;0.77;;;0.77;;
11933;SDS011;6026;48.784;9.198;2022-11-21T09:23:13;0.70;;;0.70;;
11933;SDS011;6026;48.784;9.198;2022-11-21T09:25:40;0.80;;;0.80;;
11933;SDS011;6026;48.784;9.198;2022-11-21T09:28:07;0.70;;;0.70;;
11933;SDS011;6026;48.784;9.198;2022-11-21T09:30:34;0.90;;;0.90;;
11933;SDS011;6026;48.784;9.198;2022-11-21T09:33:00;0.70;;;0.70;;
11933;SDS011;6026;48.784;9.198;2022-11-21T09:35:26;0.90;;;0.90;;
11933;SDS011;6026;48.784;9.198;2022-11-21T09:37:52;2.93;;;2.83;;
11933;SDS011;6026;48.784;9.198;2022-11-21T09:40:18;0.70;;;0.70;;
11933;SDS011;6026;48.784;9.198;2022-11-21T09:42:51;0.80;;;0.80;;
11933;SDS011;6026;48.784;9.198;2022-11-21T09:45:30;0.70;;;0.70;;
11933;SDS011;6026;48.784;9.198;2022-11-21T09:48:01;0.70;;;0.70;;
11933;SDS011;6026;48.784;9.198;2022-11-21T09:50:53;0.80;;;0.80;;
11933;SDS011;6026;48.784;9.198;2022-11-21T09:53:24;0.80;;;0.80;;
11933;SDS011;6026;48.784;9.198;2022-11-21T09:55:57;0.80;;;0.80;;
11933;SDS011;6026;48.784;9.198;2022-11-21T09:58:44;0.70;;;0.70;;
11933;SDS011;6026;48.784;9.198;2022-11-21T10:01:32;0.80;;;0.80;;
11933;SDS011;6026;48.784;9.198;2022-11-21T10:03:58;0.70;;;0.70;;
11933;SDS011;6026;48.784;9.198;2022-11-21T10:06:31;0.53;;;0.53;;
11933;SDS011;6026;48.784;9.198;2022-11-21T10:18:17;0.80;;;0.80;;
11933;SDS011;6026;48.784;9.198;2022-11-21T10:31:57;0.90;;;0.90;;
11933;SDS011;6026;48.784;9.198;2022-11-21T10:34:33;0.60;;;0.60;;
11933;SDS011;6026;48.784;9.198;2022-11-21T10:40:02;0.80;;;0.80;;
11933;SDS011;6026;48.784;9.198;2022-11-21T10:45:11;0.70;;;0.70;;
11933;SDS011;6026;48.784;9.198;2022-11-21T10:47:42;0.70;;;0.70;;
11933;SDS011;6026;48.784;9.198;2022-11-21T10:52:35;0.80;;;0.80;;
11933;SDS011;6026;48.784;9.198;2022-11-21T10:55:07;0.80;;;0.80;;
11933;SDS011;6026;48.784;9.198;2022-11-21T10:57:37;0.80;;;0.80;;
11933;SDS011;6026;48.784;9.198;2022-11-21T11:02:35;0.80;;;0.80;;
11933;SDS011;6026;48.784;9.198;2022-11-21T11:05:20;0.80;;;0.80;;
11933;SDS011;6026;48.784;9.198;2022-11-21T11:10:43;0.80;;;0.80;;
11933;SDS011;6026;48.784;9.198;2022-11-21T11:13:20;0.63;;;0.63;;
11933;SDS011;6026;48.784;9.198;2022-11-21T11:18:26;0.80;;;0.80;;
11933;SDS011;6026;48.784;9.198;2022-11-21T11:20:52;0.80;;;0.80;;
11933;SDS011;6026;48.784;9.198;2022-11-21T11:23:44;0.73;;;0.73;;
11933;SDS011;6026;48.784;9.198;2022-11-21T11:26:20;0.80;;;0.80;;
11933;SDS011;6026;48.784;9.198;2022-11-21T11:28:51;0.70;;;0.70;;
11933;SDS011;6026;48.784;9.198;2022-11-21T11:31:18;0.70;;;0.70;;
11933;SDS011;6026;48.784;9.198;2022-11-21T11:36:13;3.60;;;0.80;;
11933;SDS011;6026;48.784;9.198;2022-11-21T11:38:54;0.70;;;0.70;;
11933;SDS011;6026;48.784;9.198;2022-11-21T11:44:35;0.60;;;0.60;;
11933;SDS011;6026;48.784;9.198;2022-11-21T11:47:27;0.60;;;0.60;;
11933;SDS011;6026;48.784;9.198;2022-11-21T11:50:08;0.80;;;0.80;;
11933;SDS011;6026;48.784;9.198;2022-11-21T11:53:10;0.70;;;0.70;;
11933;SDS011;6026;48.784;9.198;2022-11-21T12:01:41;0.70;;;0.70;;
11933;SDS011;6026;48.784;9.198;2022-11-21T12:04:28;0.80;;;0.80;;
11933;SDS011;6026;48.784;9.198;2022-11-21T12:07:04;0.80;;;0.80;;
11933;SDS011;6026;48.784;9.198;2022-11-21T12:09:46;0.70;;;0.70;;
11933;SDS011;6026;48.784;9.198;2022-11-21T12:15:16;0.80;;;0.80;;
11933;SDS011;6026;48.784;9.198;2022-11-21T12:23:29;0.80;;;0.80;;
11933;SDS011;6026;48.784;9.198;2022-11-21T12:29:19;0.77;;;0.77;;
11933;SDS011;6026;48.784;9.198;2022-11-21T12:45:54;0.60;;;0.60;;
11933;SDS011;6026;48.784;9.198;2022-11-21T12:48:44;0.50;;;0.50;;
11933;SDS011;6026;48.784;9.198;2022-11-21T13:03:55;0.70;;;0.70;;
11933;SDS011;6026;48.784;9.198;2022-11-21T13:06:35;0.60;;;0.60;;
11933;SDS011;6026;48.784;9.198;2022-11-21T13:09:07;0.73;;;0.73;;
11933;SDS011;6026;48.784;9.198;2022-11-21T13:14:28;0.80;;;0.80;;
11933;SDS011;6026;48.784;9.198;2022-11-21T13:22:49;0.80;;;0.80;;
11933;SDS011;6026;48.784;9.198;2022-11-21T13:30:57;0.70;;;0.70;;
11933;SDS011;6026;48.784;9.198;2022-11-21T13:36:09;0.70;;;0.70;;
11933;SDS011;6026;48.784;9.198;2022-11-21T13:52:25;0.70;;;0.70;;
11933;SDS011;6026;48.784;9.198;2022-11-21T14:11:52;0.60;;;0.60;;
11933;SDS011;6026;48.784;9.198;2022-11-21T14:19:57;0.70;;;0.70;;
11933;SDS011;6026;48.784;9.198;2022-11-21T14:22:26;0.60;;;0.60;;
11933;SDS011;6026;48.784;9.198;2022-11-21T14:25:09;0.70;;;0.70;;
11933;SDS011;6026;48.784;9.198;2022-11-21T14:27:40;0.60;;;0.60;;
11933;SDS011;6026;48.784;9.198;2022-11-21T14:30:27;0.40;;;0.40;;
11933;SDS011;6026;48.784;9.198;2022-11-21T14:35:51;0.40;;;0.40;;
11933;SDS011;6026;48.784;9.198;2022-11-21T14:38:29;0.50;;;0.50;;
11933;SDS011;6026;48.784;9.198;2022-11-21T14:46:30;0.50;;;0.50;;
11933;SDS011;6026;48.784;9.198;2022-11-21T14:49:08;0.40;;;0.40;;
11933;SDS011;6026;48.784;9.198;2022-11-21T14:51:45;0.30;;;0.30;;
11933;SDS011;6026;48.784;9.198;2022-11-21T14:54:32;0.30;;;0.30;;
11933;SDS011;6026;48.784;9.198;2022-11-21T14:57:06;0.60;;;0.60;;
11933;SDS011;6026;48.784;9.198;2022-11-21T14:59:40;0.43;;;0.43;;
11933;SDS011;6026;48.784;9.198;2022-11-21T15:02:18;0.30;;;0.30;;
11933;SDS011;6026;48.784;9.198;2022-11-21T15:04:49;0.60;;;0.60;;
11933;SDS011;6026;48.784;9.198;2022-11-21T15:07:17;0.53;;;0.53;;
11933;SDS011;6026;48.784;9.198;2022-11-21T15:09:43;0.40;;;0.40;;
11933;SDS011;6026;48.784;9.198;2022-11-21T15:12:08;0.50;;;0.50;;
11933;SDS011;6026;48.784;9.198;2022-11-21T15:17:04;0.50;;;0.50;;
11933;SDS011;6026;48.784;9.198;2022-11-21T15:19:32;0.50;;;0.50;;
11933;SDS011;6026;48.784;9.198;2022-11-21T15:22:00;0.53;;;0.53;;
11933;SDS011;6026;48.784;9.198;2022-11-21T15:24:38;0.40;;;0.40;;
11933;SDS011;6026;48.784;9.198;2022-11-21T15:27:22;0.60;;;0.60;;
11933;SDS011;6026;48.784;9.198;2022-11-21T15:46:32;0.43;;;0.43;;
11933;SDS011;6026;48.784;9.198;2022-11-21T15:49:06;0.30;;;0.30;;
11933;SDS011;6026;48.784;9.198;2022-11-21T15:54:09;0.50;;;0.50;;
11933;SDS011;6026;48.784;9.198;2022-11-21T15:56:37;0.30;;;0.30;;
11933;SDS011;6026;48.784;9.198;2022-11-21T15:59:03;0.40;;;0.40;;
11933;SDS011;6026;48.784;9.198;2022-11-21T16:01:29;0.40;;;0.40;;
11933;SDS011;6026;48.784;9.198;2022-11-21T16:03:55;0.40;;;0.40;;
11933;SDS011;6026;48.784;9.198;2022-11-21T16:06:22;0.83;;;0.83;;
11933;SDS011;6026;48.784;9.198;2022-11-21T16:08:48;0.20;;;0.20;;
11933;SDS011;6026;48.784;9.198;2022-11-21T16:11:20;0.60;;;0.60;;
11933;SDS011;6026;48.784;9.198;2022-11-21T16:13:54;0.30;;;0.30;;
11933;SDS011;6026;48.784;9.198;2022-11-21T16:16:23;0.30;;;0.30;;
11933;SDS011;6026;48.784;9.198;2022-11-21T16:18:50;0.30;;;0.30;;
11933;SDS011;6026;48.784;9.198;2022-11-21T16:21:16;0.30;;;0.30;;
11933;SDS011;6026;48.784;9.198;2022-11-21T16:23:42;1.17;;;1.17;;
11933;SDS011;6026;48.784;9.198;2022-11-21T16:26:08;0.20;;;0.20;;
11933;SDS011;6026;48.784;9.198;2022-11-21T16:28:34;0.20;;;0.20;;
11933;SDS011;6026;48.784;9.198;2022-11-21T16:31:01;0.30;;;0.30;;
11933;SDS011;6026;48.784;9.198;2022-11-21T16:33:28;0.20;;;0.20;;
11933;SDS011;6026;48.784;9.198;2022-11-21T16:35:54;0.20;;;0.20;;
11933;SDS011;6026;48.784;9.198;2022-11-21T16:38:21;0.30;;;0.30;;
11933;SDS011;6026;48.784;9.198;2022-11-21T16:41:00;0.23;;;0.23;;
11933;SDS011;6026;48.784;9.198;2022-11-21T16:43:28;0.27;;;0.27;;
11933;SDS011;6026;48.784;9.198;2022-11-21T16:45:54;0.40;;;0.40;;
11933;SDS011;6026;48.784;9.198;2022-11-21T16:48:20;0.20;;;0.20;;
11933;SDS011;6026;48.784;9.198;2022-11-21T16:50:47;0.20;;;0.20;;
11933;SDS011;6026;48.784;9.198;2022-11-21T16:53:14;0.20;;;0.20;;
11933;SDS011;6026;48.784;9.198;2022-11-21T16:55:40;0.37;;;0.37;;
11933;SDS011;6026;48.784;9.198;2022-11-21T16:58:06;0.20;;;0.20;;
11933;SDS011;6026;48.784;9.198;2022-11-21T17:00:31;0.50;;;0.50;;
11933;SDS011;6026;48.784;9.198;2022-11-21T17:02:57;0.30;;;0.30;;
11933;SDS011;6026;48.784;9.198;2022-11-21T17:05:24;0.40;;;0.40;;
11933;SDS011;6026;48.784;9.198;2022-11-21T17:07:50;0.10;;;0.10;;
11933;SDS011;6026;48.784;9.198;2022-11-21T17:10:15;0.87;;;0.87;;
11933;SDS011;6026;48.784;9.198;2022-11-21T17:12:41;0.40;;;0.40;;
11933;SDS011;6026;48.784;9.198;2022-11-21T17:15:09;0.20;;;0.20;;
11933;SDS011;6026;48.784;9.198;2022-11-21T17:17:39;0.23;;;0.23;;
11933;SDS011;6026;48.784;9.198;2022-11-21T17:20:05;0.30;;;0.30;;
11933;SDS011;6026;48.784;9.198;2022-11-21T17:22:32;0.43;;;0.43;;
11933;SDS011;6026;48.784;9.198;2022-11-21T17:24:58;0.20;;;0.20;;
11933;SDS011;6026;48.784;9.198;2022-11-21T17:27:24;0.30;;;0.30;;
11933;SDS011;6026;48.784;9.198;2022-11-21T17:29:50;0.33;;;0.33;;
11933;SDS011;6026;48.784;9.198;2022-11-21T17:32:15;0.40;;;0.40;;
11933;SDS011;6026;48.784;9.198;2022-11-21T17:34:41;0.40;;;0.40;;
11933;SDS011;6026;48.784;9.198;2022-11-21T17:37:07;0.27;;;0.27;;
11933;SDS011;6026;48.784;9.198;2022-11-21T17:39:33;0.20;;;0.20;;
11933;SDS011;6026;48.784;9.198;2022-11-21T17:41:59;0.30;;;0.30;;
11933;SDS011;6026;48.784;9.198;2022-11-21T17:44:25;0.20;;;0.20;;
11933;SDS011;6026;48.784;9.198;2022-11-21T17:46:51;0.30;;;0.30;;
11933;SDS011;6026;48.784;9.198;2022-11-21T17:49:17;0.20;;;0.20;;
11933;SDS011;6026;48.784;9.198;2022-11-21T17:51:42;0.20;;;0.20;;
11933;SDS011;6026;48.784;9.198;2022-11-21T17:54:08;0.33;;;0.33;;
11933;SDS011;6026;48.784;9.198;2022-11-21T17:56:35;0.23;;;0.23;;
11933;SDS011;6026;48.784;9.198;2022-11-21T17:59:03;0.20;;;0.20;;
11933;SDS011;6026;48.784;9.198;2022-11-21T18:01:29;0.20;;;0.20;;
11933;SDS011;6026;48.784;9.198;2022-11-21T18:03:56;0.30;;;0.30;;